createdAt,value
2017-06-17T00:01:13.803Z,7.03
2017-06-17T00:03:40.427Z,5.55
2017-06-17T00:06:07.155Z,12.77
2017-06-17T00:08:33.758Z,6.68
2017-06-17T00:11:00.386Z,3.22
2017-06-17T00:13:27.066Z,6.65
2017-06-17T00:15:53.706Z,8.10
2017-06-17T00:18:20.343Z,8.70
2017-06-17T00:20:46.946Z,6.40
2017-06-17T00:23:13.623Z,5.57
2017-06-17T00:25:40.254Z,4.60
2017-06-17T00:28:06.898Z,13.10
2017-06-17T00:30:33.503Z,3.17
2017-06-17T00:33:00.179Z,5.10
2017-06-17T00:35:26.787Z,5.70
2017-06-17T00:37:53.451Z,8.52
2017-06-17T00:40:20.095Z,4.12
2017-06-17T00:42:46.737Z,4.35
2017-06-17T00:45:13.376Z,5.20
2017-06-17T00:47:40.019Z,4.95
2017-06-17T00:50:06.651Z,6.70
2017-06-17T00:52:33.290Z,7.18
2017-06-17T00:54:59.906Z,6.72
2017-06-17T00:57:26.515Z,8.48
2017-06-17T00:59:53.207Z,4.12
2017-06-17T01:02:19.844Z,4.60
2017-06-17T01:04:46.487Z,7.05
2017-06-17T01:07:13.127Z,3.92
2017-06-17T01:09:39.866Z,2.90
2017-06-17T01:12:06.474Z,5.37
2017-06-17T01:14:33.142Z,6.35
2017-06-17T01:16:59.782Z,6.57
2017-06-17T01:19:26.423Z,2.83
2017-06-17T01:21:53.058Z,5.40
2017-06-17T01:24:19.699Z,5.45
2017-06-17T01:26:46.346Z,4.70
2017-06-17T01:29:12.950Z,6.28
2017-06-17T01:31:39.592Z,4.55
2017-06-17T01:34:06.214Z,11.50
2017-06-17T01:36:32.818Z,6.37
2017-06-17T01:38:59.535Z,4.55
2017-06-17T01:41:26.180Z,4.07
2017-06-17T01:43:52.810Z,4.30
2017-06-17T01:46:19.450Z,5.37
2017-06-17T01:48:46.090Z,6.90
2017-06-17T01:51:12.731Z,6.00
2017-06-17T01:53:39.354Z,4.05
2017-06-17T01:56:06.006Z,4.30
2017-06-17T01:58:32.647Z,5.03
2017-06-17T02:00:59.290Z,3.72
2017-06-17T02:03:25.895Z,6.75
2017-06-17T02:05:52.563Z,5.15
2017-06-17T02:08:19.203Z,4.03
2017-06-17T02:10:45.806Z,4.20
2017-06-17T02:13:12.410Z,7.20
2017-06-17T02:15:39.223Z,4.00
2017-06-17T02:18:05.831Z,6.90
2017-06-17T02:20:32.439Z,7.90
2017-06-17T02:22:59.067Z,3.90
2017-06-17T02:25:25.782Z,6.82
2017-06-17T02:27:52.386Z,8.27
2017-06-17T02:30:19.055Z,6.35
2017-06-17T02:32:45.659Z,4.93
2017-06-17T02:35:12.334Z,6.30
2017-06-17T02:37:38.975Z,6.87
2017-06-17T02:40:05.614Z,4.30
2017-06-17T02:42:32.250Z,12.32
2017-06-17T02:44:58.931Z,10.85
2017-06-17T02:47:25.539Z,4.93
2017-06-17T02:49:52.147Z,7.40
2017-06-17T02:52:18.807Z,5.72
2017-06-17T02:54:45.447Z,5.22
2017-06-17T02:57:12.050Z,7.03
2017-06-17T02:59:38.826Z,6.57
2017-06-17T03:02:05.492Z,10.98
2017-06-17T03:04:32.107Z,10.10
2017-06-17T03:06:58.748Z,4.87
2017-06-17T03:09:25.350Z,6.43
2017-06-17T03:11:51.958Z,5.10
2017-06-17T03:14:18.597Z,5.60
2017-06-17T03:16:45.202Z,7.80
2017-06-17T03:19:11.806Z,9.23
2017-06-17T03:21:38.474Z,7.20
2017-06-17T03:24:05.078Z,5.15
2017-06-17T03:26:31.755Z,7.15
2017-06-17T03:28:58.593Z,7.50
2017-06-17T03:31:25.202Z,8.05
2017-06-17T03:33:51.875Z,5.43
2017-06-17T03:36:18.498Z,7.93
2017-06-17T03:38:45.150Z,5.28
2017-06-17T03:41:11.749Z,7.80
2017-06-17T03:43:38.435Z,11.65
2017-06-17T03:46:05.074Z,9.98
2017-06-17T03:48:31.678Z,5.28
2017-06-17T03:50:58.358Z,6.65
2017-06-17T03:53:24.986Z,6.95
2017-06-17T03:55:51.590Z,5.53
2017-06-17T03:58:18.230Z,5.70
2017-06-17T04:00:44.907Z,6.70
2017-06-17T04:03:11.543Z,10.45
2017-06-17T04:05:38.163Z,6.53
2017-06-17T04:08:04.770Z,13.18
2017-06-17T04:10:31.462Z,7.20
2017-06-17T04:12:58.106Z,5.10
2017-06-17T04:15:24.737Z,9.23
2017-06-17T04:17:51.378Z,6.82
2017-06-17T04:20:18.002Z,6.95
2017-06-17T04:22:44.667Z,6.20
2017-06-17T04:25:11.295Z,9.05
2017-06-17T04:27:37.919Z,4.97
2017-06-17T04:30:04.571Z,6.12
2017-06-17T04:32:31.174Z,4.30
2017-06-17T04:34:57.850Z,4.43
2017-06-17T04:37:24.460Z,5.32
2017-06-17T04:39:51.131Z,4.78
2017-06-17T04:42:17.755Z,5.55
2017-06-17T04:44:44.406Z,6.03
2017-06-17T04:47:11.050Z,6.70
2017-06-17T04:49:37.675Z,6.78
2017-06-17T04:52:04.283Z,8.52
2017-06-17T04:54:30.887Z,8.95
2017-06-17T04:56:57.603Z,6.20
2017-06-17T04:59:24.238Z,5.37
2017-06-17T05:01:50.878Z,7.53
2017-06-17T05:04:17.622Z,6.45
2017-06-17T05:06:44.231Z,5.18
2017-06-17T05:09:10.909Z,8.90
2017-06-17T05:11:37.526Z,4.20
2017-06-17T05:14:04.144Z,4.65
2017-06-17T05:16:30.819Z,5.57
2017-06-17T05:18:57.442Z,7.82
2017-06-17T05:21:24.050Z,5.60
2017-06-17T05:23:51.511Z,8.40
2017-06-17T05:26:18.139Z,7.37
2017-06-17T05:28:44.831Z,6.30
2017-06-17T05:31:11.470Z,8.35
2017-06-17T05:33:38.094Z,8.18
2017-06-17T05:36:04.702Z,7.75
2017-06-17T05:38:31.307Z,5.07
2017-06-17T05:40:57.927Z,3.95
2017-06-17T05:43:24.567Z,5.78
2017-06-17T05:45:51.174Z,5.18
2017-06-17T05:48:17.843Z,7.03
2017-06-17T05:50:44.482Z,5.75
2017-06-17T05:53:11.085Z,7.90
2017-06-17T05:55:37.715Z,7.93
2017-06-17T05:58:04.318Z,5.03
2017-06-17T06:00:30.922Z,8.55
2017-06-17T06:02:57.566Z,8.00
2017-06-17T06:05:24.214Z,5.78
2017-06-17T06:07:50.849Z,7.20
2017-06-17T06:10:17.491Z,7.50
2017-06-17T06:12:44.122Z,4.85
2017-06-17T06:15:10.763Z,6.30
2017-06-17T06:17:37.390Z,8.18
2017-06-17T06:20:04.003Z,4.60
2017-06-17T06:22:30.606Z,4.47
2017-06-17T06:24:57.231Z,8.60
2017-06-17T06:27:23.839Z,4.97
2017-06-17T06:29:50.506Z,7.55
2017-06-17T06:32:17.126Z,4.37
2017-06-17T06:34:43.729Z,5.87
2017-06-17T06:37:10.338Z,6.30
2017-06-17T06:39:36.958Z,4.78
2017-06-17T06:42:03.598Z,6.43
2017-06-17T06:44:30.235Z,6.82
2017-06-17T06:46:56.863Z,5.55
2017-06-17T06:49:23.470Z,4.60
2017-06-17T06:51:50.146Z,5.32
2017-06-17T06:54:16.790Z,7.65
2017-06-17T06:56:43.424Z,4.68
2017-06-17T06:59:10.070Z,3.97
2017-06-17T07:01:36.802Z,5.53
2017-06-17T07:04:03.411Z,4.87
2017-06-17T07:06:30.020Z,3.85
2017-06-17T07:08:56.723Z,3.05
2017-06-17T07:11:23.362Z,5.45
2017-06-17T07:13:49.963Z,3.53
2017-06-17T07:16:16.592Z,5.35
2017-06-17T07:18:43.194Z,2.47
2017-06-17T07:21:09.799Z,6.95
2017-06-17T07:23:36.454Z,2.90
2017-06-17T07:26:03.090Z,4.72
2017-06-17T07:28:29.695Z,4.70
2017-06-17T07:30:56.370Z,3.55
2017-06-17T07:33:22.978Z,4.82
2017-06-17T07:35:49.584Z,3.95
2017-06-17T07:38:16.211Z,3.75
2017-06-17T07:40:42.878Z,5.28
2017-06-17T07:43:09.567Z,6.05
2017-06-17T07:45:36.207Z,4.50
2017-06-17T07:48:02.847Z,2.33
2017-06-17T07:50:29.487Z,4.72
2017-06-17T07:52:56.126Z,3.35
2017-06-17T07:55:22.766Z,3.75
2017-06-17T07:57:49.371Z,7.55
2017-06-17T08:00:15.994Z,2.50
2017-06-17T08:02:42.678Z,3.35
2017-06-17T08:05:09.326Z,2.53
2017-06-17T08:07:36.054Z,1.95
2017-06-17T08:10:02.662Z,3.80
2017-06-17T08:12:29.271Z,2.42
2017-06-17T08:14:55.979Z,6.05
2017-06-17T08:17:22.618Z,2.35
2017-06-17T08:19:49.223Z,3.55
2017-06-17T08:22:15.898Z,1.92
2017-06-17T08:24:42.535Z,2.15
2017-06-17T08:27:09.183Z,6.55
2017-06-17T08:29:35.858Z,1.40
2017-06-17T08:32:02.466Z,2.87
2017-06-17T08:34:29.090Z,4.40
2017-06-17T08:36:55.726Z,3.50
2017-06-17T08:39:22.362Z,6.82
2017-06-17T08:41:48.971Z,2.90
2017-06-17T08:44:15.647Z,3.22
2017-06-17T08:46:42.254Z,3.80
2017-06-17T08:49:08.856Z,1.85
2017-06-17T08:51:35.490Z,2.15
2017-06-17T08:54:02.098Z,4.20
2017-06-17T08:56:28.742Z,2.35
2017-06-17T08:58:55.478Z,4.05
2017-06-17T09:01:22.118Z,2.85
2017-06-17T09:03:48.760Z,4.15
2017-06-17T09:06:15.498Z,2.50
2017-06-17T09:08:42.102Z,4.47
2017-06-17T09:11:08.706Z,3.28
2017-06-17T09:13:35.414Z,4.53
2017-06-17T09:16:02.018Z,2.83
2017-06-17T09:18:28.622Z,3.17
2017-06-17T09:20:55.255Z,3.28
2017-06-17T09:23:21.858Z,2.90
2017-06-17T09:25:48.462Z,3.55
2017-06-17T09:28:15.154Z,2.55
2017-06-17T09:30:41.787Z,4.75
2017-06-17T09:33:08.400Z,2.15
2017-06-17T09:35:35.022Z,3.25
2017-06-17T09:38:01.641Z,5.18
2017-06-17T09:40:28.341Z,2.87
2017-06-17T09:42:54.966Z,3.95
2017-06-17T09:45:21.575Z,4.37
2017-06-17T09:47:48.243Z,2.65
2017-06-17T09:50:14.939Z,2.53
2017-06-17T09:52:41.682Z,3.25
2017-06-17T09:55:08.386Z,4.75
2017-06-17T09:57:35.014Z,2.62
2017-06-17T10:00:01.659Z,4.30
2017-06-17T10:02:28.306Z,4.18
2017-06-17T10:04:54.982Z,4.03
2017-06-17T10:07:21.686Z,3.10
2017-06-17T10:09:48.318Z,2.12
2017-06-17T10:12:14.942Z,4.90
2017-06-17T10:14:41.546Z,3.05
2017-06-17T10:17:08.150Z,4.62
2017-06-17T10:19:34.862Z,2.55
2017-06-17T10:22:01.470Z,2.25
2017-06-17T10:24:28.154Z,2.22
2017-06-17T10:26:54.771Z,8.55
2017-06-17T10:29:21.429Z,2.58
2017-06-17T10:31:48.034Z,3.47
2017-06-17T10:34:14.714Z,2.95
2017-06-17T10:36:41.351Z,5.18
2017-06-17T10:39:07.954Z,4.18
2017-06-17T10:41:34.642Z,3.87
2017-06-17T10:44:01.247Z,3.05
2017-06-17T10:46:27.859Z,4.05
2017-06-17T10:48:54.483Z,2.37
2017-06-17T10:51:21.179Z,4.15
2017-06-17T10:53:47.822Z,4.72
2017-06-17T10:56:14.466Z,6.35
2017-06-17T10:58:41.071Z,1.95
2017-06-17T11:01:07.742Z,5.37
2017-06-17T11:03:34.370Z,1.65
2017-06-17T11:06:00.974Z,3.60
2017-06-17T11:08:27.578Z,3.53
2017-06-17T11:10:54.198Z,4.10
2017-06-17T11:13:20.807Z,3.95
2017-06-17T11:15:47.411Z,2.12
2017-06-17T11:18:14.110Z,6.70
2017-06-17T11:20:40.715Z,2.55
2017-06-17T11:23:07.386Z,4.60
2017-06-17T11:25:34.187Z,4.05
2017-06-17T11:28:00.794Z,3.37
2017-06-17T11:30:27.511Z,3.33
2017-06-17T11:32:54.146Z,2.70
2017-06-17T11:35:20.746Z,1.87
2017-06-17T11:37:47.426Z,2.90
2017-06-17T11:40:14.139Z,3.30
2017-06-17T11:42:40.806Z,3.85
2017-06-17T11:45:07.411Z,3.20
2017-06-17T11:47:34.086Z,5.18
2017-06-17T11:50:00.695Z,1.67
2017-06-17T11:52:27.362Z,4.03
2017-06-17T11:54:54.003Z,3.95
2017-06-17T11:57:20.607Z,4.40
2017-06-17T11:59:47.218Z,4.25
2017-06-17T12:02:13.838Z,3.42
2017-06-17T12:04:40.459Z,4.40
2017-06-17T12:07:07.062Z,3.30
2017-06-17T12:09:33.734Z,5.78
2017-06-17T12:12:00.379Z,2.00
2017-06-17T12:14:27.011Z,3.50
2017-06-17T12:16:53.644Z,2.92
2017-06-17T12:19:20.255Z,2.85
2017-06-17T12:21:46.926Z,3.28
2017-06-17T12:24:13.567Z,5.43
2017-06-17T12:26:40.170Z,1.77
2017-06-17T12:29:06.847Z,1.58
2017-06-17T12:31:33.592Z,2.75
2017-06-17T12:34:00.200Z,1.95
2017-06-17T12:36:26.868Z,2.58
2017-06-17T12:38:53.606Z,3.20
2017-06-17T12:41:20.215Z,5.45
2017-06-17T12:43:46.821Z,6.10
2017-06-17T12:46:13.522Z,2.20
2017-06-17T12:48:40.135Z,1.85
2017-06-17T12:51:06.804Z,1.92
2017-06-17T12:53:33.542Z,4.55
2017-06-17T12:56:00.154Z,1.52
2017-06-17T12:58:26.766Z,1.83
2017-06-17T13:00:53.492Z,3.70
2017-06-17T13:03:20.100Z,4.30
2017-06-17T13:05:46.704Z,2.00
2017-06-17T13:08:13.331Z,2.00
2017-06-17T13:10:39.934Z,1.87
2017-06-17T13:13:06.594Z,1.85
2017-06-17T13:15:33.219Z,1.83
2017-06-17T13:17:59.823Z,1.53
2017-06-17T13:20:26.475Z,2.00
2017-06-17T13:22:53.111Z,1.65
2017-06-17T13:25:19.726Z,2.92
2017-06-17T13:27:46.387Z,2.67
2017-06-17T13:30:13.010Z,1.17
2017-06-17T13:32:39.667Z,2.40
2017-06-17T13:35:06.288Z,3.30
2017-06-17T13:37:32.946Z,6.50
2017-06-17T13:39:59.551Z,1.20
2017-06-17T13:42:26.218Z,3.80
2017-06-17T13:44:52.847Z,2.10
2017-06-17T13:47:19.502Z,3.37
2017-06-17T13:49:46.142Z,1.70
2017-06-17T13:52:12.771Z,3.37
2017-06-17T13:54:39.382Z,2.75
2017-06-17T13:57:06.055Z,1.55
2017-06-17T13:59:32.679Z,1.00
2017-06-17T14:01:59.287Z,1.37
2017-06-17T14:04:25.902Z,1.70
2017-06-17T14:06:52.531Z,1.83
2017-06-17T14:09:19.143Z,2.75
2017-06-17T14:11:45.758Z,2.75
2017-06-17T14:14:12.426Z,2.58
2017-06-17T14:16:39.067Z,2.12
2017-06-17T14:19:05.678Z,3.45
2017-06-17T14:21:38.094Z,2.72
2017-06-17T14:24:04.819Z,2.78
2017-06-17T14:26:31.458Z,2.80
2017-06-17T14:28:58.082Z,1.77
2017-06-17T14:31:24.734Z,1.85
2017-06-17T14:33:51.375Z,4.00
2017-06-17T14:36:18.014Z,2.65
2017-06-17T14:38:44.623Z,3.75
2017-06-17T14:41:11.235Z,2.75
2017-06-17T14:43:37.934Z,1.90
2017-06-17T14:46:04.538Z,2.97
2017-06-17T14:48:31.210Z,2.27
2017-06-17T14:50:57.834Z,3.17
2017-06-17T14:53:24.450Z,1.85
2017-06-17T14:55:51.127Z,3.47
2017-06-17T14:58:17.866Z,2.40
2017-06-17T15:00:44.474Z,4.20
2017-06-17T15:03:11.148Z,3.45
2017-06-17T15:05:37.886Z,3.95
2017-06-17T15:08:04.523Z,4.97
2017-06-17T15:10:31.136Z,5.78
2017-06-17T15:12:57.758Z,5.40
2017-06-17T15:15:24.366Z,4.50
2017-06-17T15:17:51.082Z,3.33
2017-06-17T15:20:17.720Z,2.90
2017-06-17T15:22:44.319Z,2.10
2017-06-17T15:25:10.998Z,1.87
2017-06-17T15:27:37.635Z,4.20
2017-06-17T15:30:04.239Z,4.73
2017-06-17T15:32:30.922Z,4.23
2017-06-17T15:34:57.542Z,5.20
2017-06-17T15:37:24.199Z,2.23
2017-06-17T15:39:50.835Z,2.87
2017-06-17T15:42:17.459Z,4.80
2017-06-17T15:44:44.111Z,2.60
2017-06-17T15:47:10.715Z,1.70
2017-06-17T15:49:37.390Z,3.70
2017-06-17T15:52:03.995Z,4.13
2017-06-17T15:54:30.675Z,4.23
2017-06-17T15:56:57.518Z,5.07
2017-06-17T15:59:24.118Z,3.53
2017-06-17T16:01:50.730Z,3.20
2017-06-17T16:04:17.358Z,3.50
2017-06-17T16:06:43.969Z,4.65
2017-06-17T16:09:10.588Z,3.83
2017-06-17T16:11:37.244Z,3.47
2017-06-17T16:14:03.850Z,5.37
2017-06-17T16:16:30.526Z,4.75
2017-06-17T16:18:57.151Z,4.85
2017-06-17T16:21:23.755Z,6.87
2017-06-17T16:23:50.358Z,3.70
2017-06-17T16:26:16.983Z,3.22
2017-06-17T16:28:43.615Z,3.83
2017-06-17T16:31:10.255Z,5.97
2017-06-17T16:33:36.882Z,3.90
2017-06-17T16:36:03.571Z,5.53
2017-06-17T16:38:30.175Z,4.43
2017-06-17T16:40:56.910Z,11.63
2017-06-17T16:43:23.518Z,5.20
2017-06-17T16:45:50.127Z,7.43
2017-06-17T16:48:16.751Z,5.70
2017-06-17T16:50:43.357Z,7.00
2017-06-17T16:53:09.963Z,7.47
2017-06-17T16:55:36.587Z,5.87
2017-06-17T16:58:03.284Z,11.27
2017-06-17T17:00:29.924Z,6.68
2017-06-17T17:02:56.547Z,7.68
2017-06-17T17:05:23.155Z,7.18
2017-06-17T17:07:49.762Z,7.20
2017-06-17T17:10:16.390Z,8.73
2017-06-17T17:12:42.999Z,7.65
2017-06-17T17:15:09.652Z,7.37
2017-06-17T17:17:36.290Z,7.75
2017-06-17T17:20:02.972Z,7.78
2017-06-17T17:22:29.575Z,9.45
2017-06-17T17:24:56.198Z,8.45
2017-06-17T17:27:22.806Z,10.98
2017-06-17T17:29:49.410Z,6.28
2017-06-17T17:32:16.035Z,10.20
2017-06-17T17:34:42.646Z,10.07
2017-06-17T17:37:09.257Z,7.35
2017-06-17T17:39:35.879Z,7.30
2017-06-17T17:42:02.620Z,8.10
2017-06-17T17:44:29.323Z,9.75
2017-06-17T17:46:55.942Z,9.80
2017-06-17T17:49:22.603Z,7.85
2017-06-17T17:51:49.221Z,8.35
2017-06-17T17:54:15.838Z,6.65
2017-06-17T17:56:42.518Z,7.35
2017-06-17T17:59:09.155Z,7.90
2017-06-17T18:01:35.783Z,7.55
2017-06-17T18:04:02.387Z,6.03
2017-06-17T18:06:29.070Z,12.80
2017-06-17T18:08:55.718Z,7.82
2017-06-17T18:11:22.351Z,7.53
2017-06-17T18:13:48.995Z,7.53
2017-06-17T18:16:15.654Z,14.75
2017-06-17T18:18:42.267Z,9.80
2017-06-17T18:21:08.907Z,8.70
2017-06-17T18:23:35.527Z,7.28
2017-06-17T18:26:02.187Z,8.50
2017-06-17T18:28:28.822Z,7.93
2017-06-17T18:30:55.462Z,6.43
2017-06-17T18:33:22.103Z,8.73
2017-06-17T18:35:48.743Z,11.23
2017-06-17T18:38:15.503Z,10.65
2017-06-17T18:40:42.115Z,7.45
2017-06-17T18:43:08.723Z,9.00
2017-06-17T18:45:35.350Z,7.18
2017-06-17T18:48:01.966Z,12.07
2017-06-17T18:50:28.579Z,9.38
2017-06-17T18:52:55.319Z,7.55
2017-06-17T18:55:21.931Z,8.85
2017-06-17T18:57:48.539Z,9.00
2017-06-17T19:00:15.230Z,8.82
2017-06-17T19:02:41.834Z,7.22
2017-06-17T19:05:08.518Z,6.90
2017-06-17T19:07:35.254Z,8.40
2017-06-17T19:10:01.862Z,11.25
2017-06-17T19:12:28.470Z,11.52
2017-06-17T19:14:55.099Z,10.30
2017-06-17T19:17:21.707Z,10.50
2017-06-17T19:19:48.347Z,15.18
2017-06-17T19:22:15.090Z,17.23
2017-06-17T19:24:41.703Z,14.15
2017-06-17T19:27:08.314Z,10.27
2017-06-17T19:29:35.283Z,11.52
2017-06-17T19:32:01.891Z,12.50
2017-06-17T19:34:28.615Z,12.40
2017-06-17T19:36:55.239Z,13.18
2017-06-17T19:39:21.852Z,11.77
2017-06-17T19:41:48.507Z,7.95
2017-06-17T19:44:15.131Z,8.98
2017-06-17T19:46:41.790Z,10.75
2017-06-17T19:49:08.398Z,9.85
2017-06-17T19:51:35.063Z,7.28
2017-06-17T19:54:01.703Z,11.07
2017-06-17T19:56:28.343Z,11.77
2017-06-17T19:58:55.084Z,10.77
2017-06-17T20:01:21.728Z,9.73
2017-06-17T20:03:48.335Z,8.93
2017-06-17T20:06:14.962Z,10.05
2017-06-17T20:08:41.639Z,8.50
2017-06-17T20:11:08.278Z,9.93
2017-06-17T20:13:34.922Z,9.10
2017-06-17T20:16:01.595Z,9.40
2017-06-17T20:18:28.298Z,14.82
2017-06-17T20:21:00.798Z,10.88
2017-06-17T20:23:27.518Z,8.88
2017-06-17T20:25:54.127Z,9.18
2017-06-17T20:28:20.794Z,10.50
2017-06-17T20:30:47.401Z,9.85
2017-06-17T20:33:14.070Z,11.73
2017-06-17T20:35:40.811Z,13.30
2017-06-17T20:38:07.422Z,10.50
2017-06-17T20:40:34.030Z,14.43
2017-06-17T20:43:00.735Z,13.57
2017-06-17T20:45:27.370Z,14.65
2017-06-17T20:47:54.006Z,10.93
2017-06-17T20:50:20.752Z,12.43
2017-06-17T20:52:47.367Z,11.60
2017-06-17T20:55:13.978Z,10.85
2017-06-17T20:57:40.618Z,11.50
2017-06-17T21:00:07.311Z,12.15
2017-06-17T21:02:33.943Z,12.13
2017-06-17T21:05:00.686Z,13.65
2017-06-17T21:07:27.306Z,12.23
2017-06-17T21:09:53.964Z,15.20
2017-06-17T21:12:20.606Z,16.95
2017-06-17T21:14:47.226Z,13.82
2017-06-17T21:17:13.838Z,15.80
2017-06-17T21:19:40.466Z,15.95
2017-06-17T21:22:07.159Z,13.27
2017-06-17T21:24:33.798Z,15.10
2017-06-17T21:27:00.538Z,17.02
2017-06-17T21:29:27.154Z,15.43
2017-06-17T21:31:53.779Z,15.10
2017-06-17T21:34:20.455Z,14.80
2017-06-17T21:36:47.080Z,15.18
2017-06-17T21:39:14.183Z,13.55
2017-06-17T21:41:41.232Z,14.32
2017-06-17T21:44:08.281Z,19.92
2017-06-17T21:46:35.125Z,12.48
2017-06-17T21:49:01.898Z,13.90
2017-06-17T21:51:28.582Z,12.32
2017-06-17T21:53:55.329Z,13.65
2017-06-17T21:56:22.059Z,14.23
2017-06-17T21:58:48.697Z,12.88
2017-06-17T22:01:15.314Z,11.35
2017-06-17T22:03:41.947Z,13.68
2017-06-17T22:06:08.607Z,12.43
2017-06-17T22:08:35.218Z,13.00
2017-06-17T22:11:01.886Z,13.35
2017-06-17T22:13:28.501Z,11.98
2017-06-17T22:15:55.163Z,18.05
2017-06-17T22:18:21.801Z,11.98
2017-06-17T22:20:48.414Z,14.93
2017-06-17T22:23:15.031Z,12.18
2017-06-17T22:25:41.664Z,13.10
2017-06-17T22:28:08.274Z,15.13
2017-06-17T22:30:34.898Z,16.37
2017-06-17T22:33:01.527Z,18.30
2017-06-17T22:35:28.147Z,13.43
2017-06-17T22:37:54.811Z,13.82
2017-06-17T22:40:21.450Z,13.20
2017-06-17T22:42:48.062Z,15.48
2017-06-17T22:45:14.674Z,17.37
2017-06-17T22:47:41.370Z,13.68
2017-06-17T22:50:07.986Z,14.15
2017-06-17T22:52:34.643Z,15.82
2017-06-17T22:55:01.270Z,13.32
2017-06-17T22:57:27.882Z,13.70
2017-06-17T22:59:54.568Z,14.87
2017-06-17T23:02:21.195Z,14.95
2017-06-17T23:04:47.847Z,14.73
2017-06-17T23:07:14.463Z,21.05
2017-06-17T23:09:41.092Z,14.45
2017-06-17T23:12:07.722Z,12.73
2017-06-17T23:14:34.398Z,14.27
2017-06-17T23:17:01.043Z,12.55
2017-06-17T23:19:27.655Z,13.75
2017-06-17T23:21:54.317Z,13.45
2017-06-17T23:24:21.156Z,12.88
2017-06-17T23:26:47.836Z,13.88
2017-06-17T23:29:14.446Z,13.85
2017-06-17T23:31:41.083Z,13.90
2017-06-17T23:34:07.699Z,13.65
2017-06-17T23:36:34.355Z,14.15
2017-06-17T23:39:00.999Z,13.60
2017-06-17T23:41:27.614Z,15.13
2017-06-17T23:43:54.270Z,15.55
2017-06-17T23:46:20.906Z,16.05
2017-06-17T23:48:47.518Z,15.40
2017-06-17T23:51:14.187Z,15.50
2017-06-17T23:53:40.927Z,18.00
2017-06-17T23:56:07.544Z,13.45
2017-06-17T23:58:34.207Z,15.52
